RAMO2: Caney River, Ramona, OK

Data processed at Wed Oct 18 2017 23:01


All information presented herein is the property of the government of the United States of America and may be revised or deleted at any time without prior notice.
Dissemination of this information without the expressed written consent of the Public Affairs Office, Tulsa District U.S. Army Corps of Engineers is strictly prohibited.
These data are gathered electronically and, as presented, have not undergone any form of quality control. These data are not guaranteed to be valid or correct.
Go to home page.
Go to station list.

Upstream stations:

Downstream station:
Previous Day
Next Day
Current Day
    
SHEF ID:       RAMO2     Caney River near Ramona, OK
STATION TYPE:  

               PRECIP     STAGE  STAGE(2)  RIV-FLOW   VOLTAGE  BAT-LOAD
                   in        ft        ft       cfs      volt      volt
              Ccp-Rev   Ccp-Rev   Ccp-Rev   Ccp-Rev   Ccp-Rev   Ccp-Rev
(US/Central)
10/16 00:00      0.00      2.85      3.21        61     12.90      ----
10/16 01:00      0.00      2.89      3.40        68     12.90      ----
10/16 02:00      0.00      2.94      3.52        79     12.90      ----
10/16 03:00      0.00      2.96      3.61        84     12.80      ----
10/16 04:00      0.00      3.00      3.71        93     12.80      ----
10/16 05:00      0.00      2.99      3.79        91     12.80      ----
10/16 06:00      0.00      3.04      3.82       103     12.70      ----
10/16 07:00      0.00      3.06      3.79       109     12.70      ----
10/16 08:00      0.00      3.06      3.81       109     12.80      ----
10/16 09:00      0.00      3.05      3.98       106     13.60      ----
10/16 10:00      0.00      3.10      3.76       120     13.60      ----
10/16 11:00      0.00      3.08      4.10       114     13.60      ----
10/16 12:00      0.00      3.09      4.17       117     13.60      ----
10/16 13:00      0.00      3.08      4.15       114     13.70      ----
10/16 14:00      0.00      3.04      4.03       103     13.70      ----
10/16 15:00      0.00      3.07      3.75       111     13.60      ----
10/16 16:00      0.00      3.05      3.87       106     13.60      ----
10/16 17:00      0.00      3.04      3.79       103     13.70      ----
10/16 18:00      0.00      3.05      3.70       106     13.40      ----
10/16 19:00      ----      3.04      3.63       103      ----      ----
10/16 20:00      ----      3.06      3.61       109     13.00      ----
10/16 21:00      0.00      3.03      3.64       101     13.00      ----
10/16 22:00      0.00      3.02      3.78        98     12.90      ----
10/16 23:00      0.00      3.04      3.83       103     12.90      ----